Current Conditions
Clear
Conditions




Pressure
1019.92 (hPa) - 30.12 (inHG)
Visibility

7.0 (km) - 4.3 (miles)
   Temperature
13  °C
55°F
12  °C
Dewpoint
94  %
 Humidity
   Wind Speed
5  km/h
3  kts
3  mph
1.3  m/s
   Wind Direction
 360°
Due North
   Airport Data
LTBA
Location Atatürk International 10 km (6.22 mi)
Metar :LTBA 172350Z 36003KT 7000 NSC 13/12 Q1020 NOSIG RMK RWY17L 36001KT RWY05 36002KT RWY23 36003KT 340V050
Mon 18th November 02:50 am
   Raw Metar Info
Raw METAR is the most common format in the world for the transmission of observational weather data. It is highly standardized through the International Civil Aviation Organization (ICAO), which allows it to be understood throughout most of the world.
   API Info
Data Provided by
https://www.checkwx.com/weather/
   © Info
CSS/SVG/PHP scripts were developed by weather34.com for use in the weather34 template © 2015-2019

Guide Info provided by Metar-Wikipedia